createdAt,value
2022-12-22T00:02:39.578Z,96.70
2022-12-22T00:05:33.241Z,96.80
2022-12-22T00:08:20.276Z,96.80
2022-12-22T00:11:06.858Z,96.80
2022-12-22T00:13:53.354Z,96.80
2022-12-22T00:16:38.987Z,96.80
2022-12-22T00:19:32.115Z,96.80
2022-12-22T00:22:20.994Z,96.80
2022-12-22T00:25:08.289Z,96.80
2022-12-22T00:27:54.255Z,96.80
2022-12-22T00:30:40.003Z,96.80
2022-12-22T00:33:25.721Z,96.80
2022-12-22T00:36:11.355Z,96.80
2022-12-22T00:38:57.142Z,96.80
2022-12-22T00:41:44.439Z,96.80
2022-12-22T00:44:30.362Z,96.80
2022-12-22T00:47:15.965Z,96.80
2022-12-22T00:50:06.016Z,96.80
2022-12-22T00:52:52.377Z,96.80
2022-12-22T00:55:43.885Z,96.80
2022-12-22T00:58:35.408Z,96.80
2022-12-22T01:01:21.112Z,96.80
2022-12-22T01:04:06.972Z,96.90
2022-12-22T01:06:54.694Z,96.80
2022-12-22T01:09:41.218Z,96.80
2022-12-22T01:12:33.958Z,96.80
2022-12-22T01:15:20.852Z,96.90
2022-12-22T01:18:06.538Z,96.90
2022-12-22T01:20:52.045Z,96.80
2022-12-22T01:23:37.878Z,96.80
2022-12-22T01:26:28.440Z,96.80
2022-12-22T01:29:14.055Z,96.80
2022-12-22T01:32:00.958Z,96.80
2022-12-22T01:34:46.547Z,96.80
2022-12-22T01:37:32.124Z,96.80
2022-12-22T01:40:17.590Z,96.80
2022-12-22T01:43:03.646Z,96.80
2022-12-22T01:45:52.633Z,96.80
2022-12-22T01:48:45.166Z,96.90
2022-12-22T01:51:33.713Z,96.90
2022-12-22T01:54:20.281Z,96.80
2022-12-22T01:57:07.537Z,96.90
2022-12-22T01:59:53.417Z,96.90
2022-12-22T02:02:41.708Z,96.90
2022-12-22T02:05:33.432Z,96.90
2022-12-22T02:08:34.664Z,96.90
2022-12-22T02:11:35.754Z,96.90
2022-12-22T02:14:37.873Z,96.90
2022-12-22T02:17:30.571Z,96.90
2022-12-22T02:20:46.285Z,96.90
2022-12-22T02:23:45.396Z,96.90
2022-12-22T02:26:45.989Z,96.90
2022-12-22T02:29:34.259Z,96.90
2022-12-22T02:32:20.100Z,96.90
2022-12-22T02:35:06.124Z,96.90
2022-12-22T02:38:01.779Z,96.90
2022-12-22T02:40:54.510Z,96.90
2022-12-22T02:43:57.250Z,96.90
2022-12-22T02:46:49.943Z,97.00
2022-12-22T02:49:41.417Z,96.90
2022-12-22T02:52:37.214Z,97.00
2022-12-22T02:55:25.121Z,97.00
2022-12-22T02:58:11.201Z,97.00
2022-12-22T03:00:58.924Z,97.00
2022-12-22T03:03:45.153Z,96.90
2022-12-22T03:06:30.823Z,97.00
2022-12-22T03:09:16.762Z,97.00
2022-12-22T03:12:02.313Z,97.00
2022-12-22T03:14:48.123Z,97.00
2022-12-22T03:17:35.149Z,97.00
2022-12-22T03:20:20.929Z,97.00
2022-12-22T03:23:06.408Z,97.00
2022-12-22T03:25:53.023Z,97.00
2022-12-22T03:28:22.738Z,97.00
2022-12-22T03:30:59.955Z,97.00
2022-12-22T03:33:30.736Z,97.00
2022-12-22T03:35:59.700Z,97.00
2022-12-22T03:38:28.919Z,97.00
2022-12-22T03:40:57.456Z,97.00
2022-12-22T03:43:43.576Z,97.00
2022-12-22T03:46:30.643Z,97.00
2022-12-22T03:49:13.203Z,97.00
2022-12-22T03:51:47.670Z,97.00
2022-12-22T03:54:17.963Z,97.00
2022-12-22T03:56:46.699Z,97.00
2022-12-22T03:59:16.067Z,97.00
2022-12-22T04:01:47.064Z,97.00
2022-12-22T04:04:20.809Z,97.00
2022-12-22T04:06:49.567Z,97.00
2022-12-22T04:09:17.863Z,97.00
2022-12-22T04:12:03.939Z,97.10
2022-12-22T04:14:34.579Z,97.00
2022-12-22T04:17:03.731Z,97.10
2022-12-22T04:19:34.668Z,97.10
2022-12-22T04:22:03.137Z,97.10
2022-12-22T04:24:31.612Z,97.10
2022-12-22T04:26:59.913Z,97.10
2022-12-22T04:29:28.292Z,97.10
2022-12-22T04:31:56.650Z,97.10
2022-12-22T04:34:24.987Z,97.00
2022-12-22T04:36:54.583Z,97.00
2022-12-22T04:39:22.866Z,97.10
2022-12-22T04:41:51.131Z,97.10
2022-12-22T04:44:19.467Z,97.10
2022-12-22T04:46:47.708Z,97.10
2022-12-22T04:49:16.021Z,97.00
2022-12-22T04:51:44.331Z,97.10
2022-12-22T04:54:14.340Z,97.10
2022-12-22T04:56:42.612Z,97.10
2022-12-22T04:59:11.035Z,97.10
2022-12-22T05:01:39.647Z,97.10
2022-12-22T05:04:08.004Z,97.10
2022-12-22T05:06:36.264Z,97.10
2022-12-22T05:09:04.893Z,97.10
2022-12-22T05:11:34.670Z,97.10
2022-12-22T05:14:07.206Z,97.10
2022-12-22T05:16:36.037Z,97.10
2022-12-22T05:19:04.505Z,97.10
2022-12-22T05:21:32.821Z,97.10
2022-12-22T05:24:01.146Z,97.10
2022-12-22T05:26:29.508Z,97.10
2022-12-22T05:28:59.182Z,97.10
2022-12-22T05:31:28.050Z,97.10
2022-12-22T05:33:56.951Z,97.10
2022-12-22T05:36:25.262Z,97.10
2022-12-22T05:38:53.671Z,97.10
2022-12-22T05:41:21.964Z,97.10
2022-12-22T05:43:50.224Z,97.10
2022-12-22T05:46:20.214Z,97.10
2022-12-22T05:48:48.763Z,97.20
2022-12-22T05:51:17.138Z,97.10
2022-12-22T05:53:45.503Z,97.10
2022-12-22T05:56:13.799Z,97.10
2022-12-22T05:58:42.130Z,97.10
2022-12-22T06:01:10.516Z,97.10
2022-12-22T06:03:40.278Z,97.20
2022-12-22T06:06:08.954Z,97.10
2022-12-22T06:08:37.257Z,97.10
2022-12-22T06:11:05.860Z,97.10
2022-12-22T06:13:34.310Z,97.20
2022-12-22T06:16:02.923Z,97.10
2022-12-22T06:18:31.281Z,97.10
2022-12-22T06:21:00.988Z,97.10
2022-12-22T06:23:29.340Z,97.10
2022-12-22T06:25:58.193Z,97.10
2022-12-22T06:28:27.179Z,97.10
2022-12-22T06:30:56.189Z,97.20
2022-12-22T06:33:24.767Z,97.20
2022-12-22T06:35:58.731Z,97.20
2022-12-22T06:38:29.643Z,97.20
2022-12-22T06:40:58.241Z,97.20
2022-12-22T06:43:25.905Z,97.20
2022-12-22T06:45:54.678Z,97.20
2022-12-22T06:48:23.145Z,97.20
2022-12-22T06:50:51.881Z,97.20
2022-12-22T06:53:20.159Z,97.20
2022-12-22T06:55:49.778Z,97.20
2022-12-22T06:58:18.076Z,97.20
2022-12-22T07:00:48.675Z,97.20
2022-12-22T07:03:17.605Z,97.20
2022-12-22T07:05:46.079Z,97.20
2022-12-22T07:08:14.411Z,97.20
2022-12-22T07:11:00.988Z,97.20
2022-12-22T07:13:34.077Z,97.20
2022-12-22T07:16:03.107Z,97.20
2022-12-22T07:18:33.446Z,97.20
2022-12-22T07:21:03.734Z,97.20
2022-12-22T07:23:32.764Z,97.20
2022-12-22T07:26:01.585Z,97.20
2022-12-22T07:28:33.618Z,97.20
2022-12-22T07:31:02.365Z,97.20
2022-12-22T07:33:31.221Z,97.20
2022-12-22T07:36:09.957Z,97.20
2022-12-22T07:38:40.139Z,97.20
2022-12-22T07:41:32.196Z,97.20
2022-12-22T07:44:01.838Z,97.20
2022-12-22T07:46:32.690Z,97.20
2022-12-22T07:49:18.746Z,97.30
2022-12-22T07:51:47.275Z,97.20
2022-12-22T07:54:17.427Z,97.20
2022-12-22T07:56:47.888Z,97.20
2022-12-22T07:59:18.226Z,97.20
2022-12-22T08:01:47.142Z,97.30
2022-12-22T08:04:16.450Z,97.20
2022-12-22T08:06:44.964Z,97.20
2022-12-22T08:09:21.512Z,97.20
2022-12-22T08:11:51.272Z,97.20
2022-12-22T08:14:20.966Z,97.20
2022-12-22T08:16:49.384Z,97.20
2022-12-22T08:19:17.844Z,97.20
2022-12-22T08:21:52.536Z,97.20
2022-12-22T08:24:22.760Z,97.30
2022-12-22T08:26:54.536Z,97.30
2022-12-22T08:29:29.198Z,97.20
2022-12-22T08:31:57.808Z,97.30
2022-12-22T08:34:26.243Z,97.20
2022-12-22T08:36:58.050Z,97.30
2022-12-22T08:39:43.636Z,97.20
2022-12-22T08:42:15.493Z,97.30
2022-12-22T08:44:46.017Z,97.30
2022-12-22T08:47:17.066Z,97.30
2022-12-22T08:49:45.818Z,97.20
2022-12-22T08:52:18.913Z,97.30
2022-12-22T08:54:47.625Z,97.30
2022-12-22T08:57:16.035Z,97.20
2022-12-22T08:59:48.206Z,97.30
2022-12-22T09:02:16.684Z,97.20
2022-12-22T09:04:45.073Z,97.30
2022-12-22T09:07:13.375Z,97.30
2022-12-22T09:09:41.947Z,97.20
2022-12-22T09:12:10.260Z,97.30
2022-12-22T09:14:38.707Z,97.30
2022-12-22T09:17:08.560Z,97.30
2022-12-22T09:19:37.418Z,97.30
2022-12-22T09:22:05.767Z,97.30
2022-12-22T09:24:34.127Z,97.30
2022-12-22T09:27:03.515Z,97.30
2022-12-22T09:29:32.070Z,97.20
2022-12-22T09:32:00.386Z,97.20
2022-12-22T09:34:30.282Z,97.30
2022-12-22T09:36:58.673Z,97.20
2022-12-22T09:39:29.304Z,97.30
2022-12-22T09:42:00.079Z,97.30
2022-12-22T09:44:33.159Z,97.30
2022-12-22T09:47:03.651Z,97.30
2022-12-22T09:49:33.373Z,97.20
2022-12-22T09:52:05.299Z,97.20
2022-12-22T09:54:33.651Z,97.20
2022-12-22T09:57:03.203Z,97.20
2022-12-22T09:59:31.739Z,97.20
2022-12-22T10:02:15.611Z,97.20
2022-12-22T10:05:00.732Z,97.20
2022-12-22T10:07:34.864Z,97.20
2022-12-22T10:10:09.191Z,97.20
2022-12-22T10:12:37.553Z,97.20
2022-12-22T10:15:07.555Z,97.20
2022-12-22T10:17:38.686Z,97.20
2022-12-22T10:20:30.128Z,97.20
2022-12-22T10:22:59.827Z,97.20
2022-12-22T10:28:26.891Z,97.20
2022-12-22T10:31:20.733Z,97.20
2022-12-22T10:33:51.371Z,97.10
2022-12-22T10:36:26.070Z,97.10
2022-12-22T10:39:02.873Z,97.10
2022-12-22T10:41:36.472Z,97.10
2022-12-22T10:44:10.595Z,97.00
2022-12-22T10:46:43.489Z,97.00
2022-12-22T10:49:17.919Z,96.90
2022-12-22T10:51:50.719Z,96.80
2022-12-22T10:54:31.993Z,96.60
2022-12-22T10:57:07.580Z,96.50
2022-12-22T10:59:49.190Z,96.40
2022-12-22T11:02:35.043Z,96.40
2022-12-22T11:05:08.065Z,96.20
2022-12-22T11:07:40.977Z,96.10
2022-12-22T11:10:29.995Z,96.10
2022-12-22T11:13:26.476Z,96.10
2022-12-22T11:16:02.818Z,96.00
2022-12-22T11:18:53.365Z,95.90
2022-12-22T11:21:29.883Z,95.80
2022-12-22T11:24:13.410Z,95.70
2022-12-22T11:26:52.454Z,95.60
2022-12-22T11:29:44.135Z,95.60
2022-12-22T11:32:37.253Z,95.40
2022-12-22T11:35:15.432Z,95.00
2022-12-22T11:37:50.430Z,94.90
2022-12-22T11:40:33.330Z,94.70
2022-12-22T11:43:37.483Z,94.60
2022-12-22T11:46:21.287Z,94.20
2022-12-22T11:49:33.389Z,94.10
2022-12-22T11:52:28.146Z,94.10
2022-12-22T11:55:20.746Z,94.40
2022-12-22T11:58:03.150Z,94.40
2022-12-22T12:01:12.582Z,94.00
2022-12-22T12:04:22.156Z,94.00
2022-12-22T12:07:23.577Z,93.70
2022-12-22T12:10:05.729Z,93.40
2022-12-22T12:12:49.723Z,93.30
2022-12-22T12:15:29.360Z,93.70
2022-12-22T12:18:30.200Z,93.50
2022-12-22T12:21:13.994Z,93.50
2022-12-22T12:24:06.795Z,93.50
2022-12-22T12:26:45.657Z,93.10
2022-12-22T12:29:20.442Z,93.00
2022-12-22T12:31:56.317Z,93.20
2022-12-22T12:34:25.723Z,93.40
2022-12-22T12:36:59.773Z,93.10
2022-12-22T12:39:36.785Z,93.20
2022-12-22T12:42:27.352Z,92.70
2022-12-22T12:44:56.451Z,92.80
2022-12-22T12:47:29.136Z,92.80
2022-12-22T12:50:32.878Z,92.80
2022-12-22T12:53:11.061Z,93.10
2022-12-22T12:56:04.242Z,92.90
2022-12-22T12:59:02.909Z,92.90
2022-12-22T13:02:00.529Z,93.00
2022-12-22T13:05:26.477Z,91.90
2022-12-22T13:08:20.180Z,92.00
2022-12-22T13:11:44.674Z,91.90
2022-12-22T13:14:09.297Z,91.90
2022-12-22T13:16:40.576Z,92.10
2022-12-22T13:19:27.654Z,92.60
2022-12-22T13:21:58.058Z,92.30
2022-12-22T13:24:31.577Z,92.40
2022-12-22T13:27:06.869Z,92.30
2022-12-22T13:29:44.735Z,92.50
2022-12-22T13:32:27.320Z,92.40
2022-12-22T13:37:54.920Z,92.60
2022-12-22T13:40:28.302Z,92.60
2022-12-22T13:43:01.568Z,92.50
2022-12-22T13:45:35.344Z,92.50
2022-12-22T13:48:10.501Z,92.80
2022-12-22T13:50:44.199Z,92.60
2022-12-22T13:53:42.076Z,92.90
2022-12-22T13:56:10.178Z,92.80
2022-12-22T13:58:41.252Z,92.70
2022-12-22T14:01:18.152Z,93.10
2022-12-22T14:04:01.696Z,93.00
2022-12-22T14:06:33.872Z,93.10
2022-12-22T14:09:18.244Z,92.90
2022-12-22T14:11:53.053Z,92.90
2022-12-22T14:14:26.835Z,92.60
2022-12-22T14:16:59.569Z,92.80
2022-12-22T14:19:33.297Z,92.10
2022-12-22T14:22:08.415Z,92.30
2022-12-22T14:24:44.402Z,92.10
2022-12-22T14:27:25.364Z,91.70
2022-12-22T14:29:54.034Z,91.70
2022-12-22T14:32:40.629Z,91.00
2022-12-22T14:35:31.291Z,91.20
2022-12-22T14:38:29.569Z,90.80
2022-12-22T14:40:58.174Z,90.90
2022-12-22T14:43:33.299Z,91.50
2022-12-22T14:46:09.182Z,91.00
2022-12-22T14:48:41.445Z,91.10
2022-12-22T14:51:09.950Z,91.30
2022-12-22T14:53:48.083Z,91.30
2022-12-22T14:56:18.558Z,91.50
2022-12-22T14:58:50.021Z,91.90
2022-12-22T15:01:23.462Z,91.90
2022-12-22T15:04:09.616Z,92.20
2022-12-22T15:06:41.351Z,92.30
2022-12-22T15:12:19.457Z,93.00
2022-12-22T15:14:50.102Z,93.30
2022-12-22T15:17:23.887Z,93.40
2022-12-22T15:19:52.950Z,93.60
2022-12-22T15:22:21.406Z,93.50
2022-12-22T15:24:49.718Z,93.70
2022-12-22T15:27:18.010Z,93.80
2022-12-22T15:29:46.325Z,93.70
2022-12-22T15:32:16.398Z,93.80
2022-12-22T15:34:45.327Z,93.90
2022-12-22T15:37:14.272Z,94.10
2022-12-22T15:39:42.554Z,94.20
2022-12-22T15:42:10.875Z,94.40
2022-12-22T15:44:39.531Z,94.50
2022-12-22T15:47:10.996Z,94.70
2022-12-22T15:49:41.178Z,94.80
2022-12-22T15:52:13.291Z,94.90
2022-12-22T15:54:41.661Z,95.00
2022-12-22T15:57:14.629Z,95.10
2022-12-22T15:59:42.937Z,95.20
2022-12-22T16:02:13.644Z,95.30
2022-12-22T16:04:43.658Z,95.30
2022-12-22T16:07:13.532Z,95.40
2022-12-22T16:09:44.450Z,95.50
2022-12-22T16:12:18.046Z,95.50
2022-12-22T16:14:51.115Z,95.60
2022-12-22T16:17:21.767Z,95.60
2022-12-22T16:19:51.544Z,95.70
2022-12-22T16:22:27.847Z,95.70
2022-12-22T16:24:56.266Z,95.80
2022-12-22T16:27:24.696Z,95.80
2022-12-22T16:29:55.031Z,95.90
2022-12-22T16:32:26.752Z,95.90
2022-12-22T16:35:19.829Z,95.90
2022-12-22T16:37:49.975Z,96.00
2022-12-22T16:40:19.936Z,96.00
2022-12-22T16:45:46.679Z,96.10
2022-12-22T16:48:20.887Z,96.10
2022-12-22T16:50:50.742Z,96.20
2022-12-22T16:53:19.214Z,96.20
2022-12-22T16:55:47.519Z,96.20
2022-12-22T16:58:15.789Z,96.20
2022-12-22T17:00:46.417Z,96.20
2022-12-22T17:03:17.517Z,96.30
2022-12-22T17:05:46.887Z,96.30
2022-12-22T17:08:24.528Z,96.30
2022-12-22T17:10:55.170Z,96.30
2022-12-22T17:13:24.132Z,96.30
2022-12-22T17:15:52.838Z,96.30
2022-12-22T17:18:23.725Z,96.30
2022-12-22T17:20:56.490Z,96.40
2022-12-22T17:23:33.776Z,96.40
2022-12-22T17:26:04.918Z,96.40
2022-12-22T17:28:34.659Z,96.40
2022-12-22T17:31:03.348Z,96.40
2022-12-22T17:33:32.403Z,96.40
2022-12-22T17:36:02.398Z,96.40
2022-12-22T17:38:32.143Z,96.40
2022-12-22T17:41:01.685Z,96.50
2022-12-22T17:43:29.952Z,96.40
2022-12-22T17:45:58.233Z,96.40
2022-12-22T17:48:26.515Z,96.40
2022-12-22T17:50:54.838Z,96.50
2022-12-22T17:53:23.802Z,96.40
2022-12-22T17:56:09.739Z,96.40
2022-12-22T17:58:38.188Z,96.40
2022-12-22T18:01:06.753Z,96.50
2022-12-22T18:03:35.127Z,96.50
2022-12-22T18:06:03.659Z,96.50
2022-12-22T18:08:32.066Z,96.50
2022-12-22T18:11:03.419Z,96.50
2022-12-22T18:13:31.794Z,96.50
2022-12-22T18:16:00.266Z,96.50
2022-12-22T18:18:28.897Z,96.50
2022-12-22T18:21:06.995Z,96.50
2022-12-22T18:23:37.971Z,96.50
2022-12-22T18:26:09.769Z,96.50
2022-12-22T18:28:38.128Z,96.50
2022-12-22T18:31:06.907Z,96.50
2022-12-22T18:33:35.255Z,96.50
2022-12-22T18:36:03.947Z,96.50
2022-12-22T18:38:36.096Z,96.60
2022-12-22T18:41:04.561Z,96.60
2022-12-22T18:43:34.324Z,96.60
2022-12-22T18:46:02.651Z,96.60
2022-12-22T18:48:30.911Z,96.60
2022-12-22T18:50:59.269Z,96.60
2022-12-22T18:53:31.552Z,96.60
2022-12-22T18:56:00.833Z,96.60
2022-12-22T18:58:29.219Z,96.60
2022-12-22T19:00:59.198Z,96.60
2022-12-22T19:03:30.206Z,96.60
2022-12-22T19:05:58.668Z,96.60
2022-12-22T19:08:31.420Z,96.60
2022-12-22T19:11:01.882Z,96.60
2022-12-22T19:13:35.429Z,96.70
2022-12-22T19:16:06.727Z,96.60
2022-12-22T19:18:35.090Z,96.60
2022-12-22T19:21:03.350Z,96.70
2022-12-22T19:23:31.682Z,96.70
2022-12-22T19:26:08.429Z,96.70
2022-12-22T19:28:41.326Z,96.70
2022-12-22T19:31:22.117Z,96.70
2022-12-22T19:33:51.381Z,96.70
2022-12-22T19:36:25.442Z,96.70
2022-12-22T19:39:03.496Z,96.70
2022-12-22T19:41:42.079Z,96.70
2022-12-22T19:44:20.668Z,96.70
2022-12-22T19:46:51.169Z,96.70
2022-12-22T19:49:22.485Z,96.70
2022-12-22T19:51:51.372Z,96.70
2022-12-22T19:54:20.585Z,96.60
2022-12-22T19:56:52.801Z,96.60
2022-12-22T19:59:33.963Z,96.70
2022-12-22T20:02:26.639Z,96.70
2022-12-22T20:04:55.889Z,96.60
2022-12-22T20:07:27.785Z,96.60
2022-12-22T20:09:56.277Z,96.60
2022-12-22T20:12:29.733Z,96.70
2022-12-22T20:14:58.491Z,96.60
2022-12-22T20:17:28.251Z,96.60
2022-12-22T20:19:56.626Z,96.60
2022-12-22T20:22:25.308Z,96.70
2022-12-22T20:25:26.024Z,96.60
2022-12-22T20:27:56.262Z,96.60
2022-12-22T20:30:29.166Z,96.60
2022-12-22T20:32:59.011Z,96.60
2022-12-22T20:35:27.410Z,96.60
2022-12-22T20:37:55.746Z,96.60
2022-12-22T20:40:26.586Z,96.60
2022-12-22T20:42:55.395Z,96.60
2022-12-22T20:45:23.947Z,96.60
2022-12-22T20:47:52.929Z,96.60
2022-12-22T20:50:25.816Z,96.50
2022-12-22T20:52:55.444Z,96.50
2022-12-22T20:55:27.125Z,96.50
2022-12-22T20:57:56.278Z,96.50
2022-12-22T21:00:28.416Z,96.50
2022-12-22T21:02:56.862Z,96.50
2022-12-22T21:05:26.652Z,96.50
2022-12-22T21:07:55.145Z,96.50
2022-12-22T21:10:26.550Z,96.50
2022-12-22T21:12:55.078Z,96.50
2022-12-22T21:15:25.670Z,96.50
2022-12-22T21:17:58.236Z,96.40
2022-12-22T21:20:31.504Z,96.50
2022-12-22T21:22:59.847Z,96.40
2022-12-22T21:25:28.484Z,96.40
2022-12-22T21:27:57.736Z,96.40
2022-12-22T21:30:28.914Z,96.40
2022-12-22T21:32:57.916Z,96.40
2022-12-22T21:35:32.641Z,96.40
2022-12-22T21:38:01.163Z,96.40
2022-12-22T21:40:32.490Z,96.40
2022-12-22T21:43:01.066Z,96.40
2022-12-22T21:45:31.961Z,96.40
2022-12-22T21:48:02.146Z,96.40
2022-12-22T21:50:34.517Z,96.40
2022-12-22T21:53:03.400Z,96.30
2022-12-22T21:55:34.467Z,96.30
2022-12-22T21:58:03.097Z,96.30
2022-12-22T22:00:33.203Z,96.30
2022-12-22T22:03:03.594Z,96.30
2022-12-22T22:05:36.293Z,96.30
2022-12-22T22:08:07.755Z,96.30
2022-12-22T22:10:39.816Z,96.30
2022-12-22T22:13:09.262Z,96.30
2022-12-22T22:15:38.179Z,96.20
2022-12-22T22:18:07.729Z,96.30
2022-12-22T22:20:37.707Z,96.30
2022-12-22T22:23:06.021Z,96.20
2022-12-22T22:25:34.303Z,96.20
2022-12-22T22:28:02.598Z,96.20
2022-12-22T22:30:31.065Z,96.20
2022-12-22T22:32:59.485Z,96.20
2022-12-22T22:35:28.813Z,96.20
2022-12-22T22:37:58.473Z,96.20
2022-12-22T22:40:26.793Z,96.10
2022-12-22T22:42:56.852Z,96.10
2022-12-22T22:45:25.169Z,96.20
2022-12-22T22:47:54.227Z,96.20
2022-12-22T22:50:24.280Z,96.20
2022-12-22T22:52:52.641Z,96.20
2022-12-22T22:55:22.354Z,96.20
2022-12-22T22:57:50.871Z,96.20
2022-12-22T23:00:21.951Z,96.20
2022-12-22T23:02:50.397Z,96.20
2022-12-22T23:05:22.857Z,96.20
2022-12-22T23:07:51.673Z,96.20
2022-12-22T23:10:21.394Z,96.20
2022-12-22T23:12:49.844Z,96.20
2022-12-22T23:15:18.351Z,96.30
2022-12-22T23:17:46.736Z,96.20
2022-12-22T23:20:15.217Z,96.20
2022-12-22T23:22:43.560Z,96.30
2022-12-22T23:25:11.849Z,96.30
2022-12-22T23:27:41.561Z,96.30
2022-12-22T23:30:11.652Z,96.30
2022-12-22T23:32:39.952Z,96.20
2022-12-22T23:35:08.857Z,96.20
2022-12-22T23:37:37.211Z,96.20
2022-12-22T23:42:57.398Z,96.20
2022-12-22T23:45:25.825Z,96.20
2022-12-22T23:47:54.099Z,96.20
2022-12-22T23:50:22.898Z,96.20
2022-12-22T23:52:52.748Z,96.20
2022-12-22T23:55:21.907Z,96.20
2022-12-22T23:57:51.704Z,96.20
